Flight Track Log - Related Links

Times and Time Zones

All times are in EDT time to prevent confusion due to time zone crossing. See the N680AN flight status page for this flight to view local times or setup timezone preferences in your user account.

Time Position Orientation Groundspeed Altitude Reporting Facility
EDT Latitude Longitude Course Direction KTS MPH feet Rate Location/Type
Thu 07:25:26 AM 32.9000 -97.0333 68° East 155 178 1,300  Level Dallas TRACON
Thu 07:26:38 AM 32.9667 -97.0167 12° North 227 261 4,000 2,663 Climbing Dallas TRACON
Thu 07:27:00 AM 32.7272 -97.0196 175° South  Level FlightAware
Thu 07:28:00 AM 32.6833 -96.8906 90° East  Level FlightAware
Thu 07:28:15 AM 33.0161 -96.9353 54° Northeast 280 322 8,800  Level Fort Center
Thu 07:29:00 AM 32.7001 -96.7499 68° East  Level FlightAware
Thu 07:29:15 AM 32.9992 -96.8436 102° East 232 267 10,000  Level Fort Center
Thu 07:30:00 AM 32.7449 -96.6155 68° East  Level FlightAware
Thu 07:30:15 AM 32.9650 -96.7153 108° East 314 361 11,500  Level Fort Center
Thu 07:31:15 AM 32.9331 -96.5942 107° East 375 432 14,600 2,850 Climbing Fort Center
Thu 07:32:15 AM 32.9133 -96.4631 100° East 392 451 17,200 2,600 Climbing Fort Center
Thu 07:33:15 AM 32.8997 -96.3297 97° East 403 464 19,800 2,400 Climbing Fort Center
Thu 07:34:15 AM 32.8858 -96.1939 97° East 413 475 22,000 1,950 Climbing Fort Center
Thu 07:35:15 AM 32.8697 -96.0481 97° East 435 501 23,700 1,650 Climbing Fort Center
Thu 07:36:15 AM 32.8536 -95.8975 97° East 449 517 25,300 1,750 Climbing Fort Center
Thu 07:37:15 AM 32.8347 -95.7419 98° East 469 540 27,200 1,700 Climbing Fort Center
Thu 07:38:15 AM 32.8161 -95.5942 98° East 488 562 28,700 1,700 Climbing Fort Center
Thu 07:39:15 AM 32.7969 -95.4364 98° East 488 562 30,600 1,900 Climbing Fort Center
Thu 07:40:15 AM 32.7797 -95.2786 97° East 488 562 32,500 1,200 Climbing Fort Center
Thu 07:41:15 AM 32.7625 -95.1208 97° East 483 556 33,000 250 Climbing Fort Center
Thu 07:42:15 AM 32.7428 -94.9583 98° East 489 563 33,000  Level Fort Center
Thu 07:43:15 AM 32.7228 -94.7983 98° East 489 563 33,000  Level Fort Center
Thu 07:44:15 AM 32.7025 -94.6361 98° East 489 563 33,000  Level Fort Center
Thu 07:45:15 AM 32.6822 -94.4764 99° East 489 563 33,000  Level Fort Center
Thu 07:46:15 AM 32.6658 -94.3164 97° East 484 557 33,000  Level Fort Center
Thu 07:47:15 AM 32.6453 -94.1592 99° East 484 557 33,000  Level Fort Center
Thu 07:48:15 AM 32.6264 -93.9994 98° East 484 557 33,000  Level Fort Center
Thu 07:49:15 AM 32.6053 -93.8450 99° East 479 551 33,000  Level Fort Center
Thu 07:50:15 AM 32.5861 -93.6856 98° East 484 557 33,000  Level Fort Center
Thu 07:51:15 AM 32.5667 -93.5286 98° East 484 557 33,000  Level Fort Center
Thu 07:52:15 AM 32.5472 -93.3692 98° East 484 557 33,000  Level Fort Center
Thu 07:53:15 AM 32.5253 -93.2150 100° East 484 557 33,000  Level Fort Center
Thu 07:54:15 AM 32.5056 -93.0583 98° East 484 557 33,000  Level Fort Center
Thu 07:55:15 AM 32.4853 -92.9017 99° East 484 557 33,000  Level Fort Center
Thu 07:56:15 AM 32.4672 -92.7475 98° East 484 557 33,000  Level Fort Center
Thu 07:57:15 AM 32.4428 -92.5961 101° East 479 551 33,000  Level Fort Center
Thu 07:58:15 AM 32.4236 -92.4300 98° East 479 551 33,000  Level Fort Center
Thu 07:59:15 AM 32.3989 -92.2789 101° East 467 537 33,000  Level Fort Center
Thu 08:01:11 AM 32.3608 -92.0108 99° East 470 541 33,000  Level Houston Center
Thu 08:02:12 AM 32.3331 -91.8275 100° East 472 543 33,000  Level Houston Center
Thu 08:03:13 AM 32.3117 -91.6761 99° East 468 539 33,000  Level Houston Center
Thu 08:04:15 AM 32.2892 -91.5239 100° East 469 540 33,000  Level Houston Center
Thu 08:05:20 AM 32.2669 -91.3694 100° East 467 537 33,000 480 Level Memphis Center
Thu 08:06:20 AM 32.2431 -91.2169 100° East 467 537 34,000 800 Climbing Memphis Center
Thu 08:07:20 AM 32.2192 -91.0619 100° East 472 543 34,600 500 Climbing Memphis Center
Thu 08:08:20 AM 32.1969 -90.9072 100° East 472 543 35,000 200 Climbing Memphis Center
Thu 08:09:20 AM 32.1725 -90.7575 101° East 467 537 35,000 50 Level Memphis Center
Thu 08:10:20 AM 32.1497 -90.6053 100° East 467 537 35,100 850 Climbing Memphis Center
Thu 08:11:20 AM 32.1250 -90.4408 100° East 467 537 36,700 1,400 Climbing Memphis Center
Thu 08:12:20 AM 32.1019 -90.2886 100° East 467 537 37,900 1,150 Climbing Memphis Center
Thu 08:13:20 AM 32.0789 -90.1367 100° East 467 537 39,000 550 Climbing Memphis Center
Thu 08:14:20 AM 32.0533 -89.9872 101° East 467 537 39,000  Level Memphis Center
Thu 08:15:20 AM 32.0300 -89.8403 101° East 462 532 39,000  Level Memphis Center
Thu 08:16:20 AM 32.0083 -89.6933 100° East 462 532 39,000  Level Memphis Center
Thu 08:17:20 AM 31.9825 -89.5442 102° East 462 532 39,000  Level Memphis Center
Thu 08:18:20 AM 31.9583 -89.3975 101° East 467 537 39,000  Level Memphis Center
Thu 08:19:20 AM 31.9319 -89.2461 102° East 467 537 39,000  Level Memphis Center
Thu 08:20:20 AM 31.9100 -89.1214 102° East 460 529 39,000  Level Memphis Center
Thu 08:21:20 AM 31.8856 -88.9703 101° East 460 529 39,000  Level Memphis Center
Thu 08:22:20 AM 31.8608 -88.8214 101° East 460 529 39,000  Level Memphis Center
Thu 08:23:20 AM 31.8358 -88.6703 101° East 465 535 39,000  Level Memphis Center
Thu 08:25:49 AM 31.7694 -88.2914 102° East 461 531 39,000  Level Atlanta Center
Thu 08:26:49 AM 31.7453 -88.1414 101° East 461 531 39,000  Level Atlanta Center
Thu 08:27:49 AM 31.7189 -87.9939 102° East 461 531 39,000  Level Atlanta Center
Thu 08:28:49 AM 31.6942 -87.8464 101° East 456 525 39,000  Level Atlanta Center
Thu 08:29:49 AM 31.6675 -87.6989 102° East 456 525 39,000  Level Atlanta Center
Thu 08:30:49 AM 31.6403 -87.5514 102° East 456 525 39,000  Level Atlanta Center
Thu 08:31:49 AM 31.6153 -87.4064 101° East 456 525 39,000  Level Atlanta Center
Thu 08:32:49 AM 31.5878 -87.2592 102° East 451 519 39,000  Level Atlanta Center
Thu 08:35:20 AM 31.5147 -86.8889 103° East 470 541 39,000  Level Jacksonville Center
Thu 08:36:20 AM 31.4858 -86.7442 103° East 460 529 39,000  Level Jacksonville Center
Thu 08:37:20 AM 31.4589 -86.5967 102° East 460 529 39,000  Level Jacksonville Center
Thu 08:38:20 AM 31.4319 -86.4497 102° East 460 529 39,000  Level Jacksonville Center
Thu 08:39:20 AM 31.4025 -86.3000 103° East 455 524 39,000  Level Jacksonville Center
Thu 08:40:20 AM 31.3731 -86.1556 103° East 460 529 39,000  Level Jacksonville Center
Thu 08:41:20 AM 31.3433 -86.0086 103° East 460 529 39,000  Level Jacksonville Center
Thu 08:42:20 AM 31.3156 -85.8569 102° East 460 529 39,000  Level Jacksonville Center
Thu 08:43:20 AM 31.2914 -85.7225 102° East 460 529 39,000  Level Jacksonville Center
Thu 08:44:20 AM 31.2614 -85.5708 103° East 467 537 39,000 -50 Level Jacksonville Center
Thu 08:45:20 AM 31.2331 -85.4242 103° East 467 537 38,900 -650 Descending Jacksonville Center
Thu 08:46:20 AM 31.2025 -85.2728 103° East 472 543 37,700 -1,350 Descending Jacksonville Center
Thu 08:47:20 AM 31.1678 -85.1142 104° East 467 537 36,200 -1,350 Descending Jacksonville Center
Thu 08:48:20 AM 31.1011 -84.9817 120° Southeast 461 531 35,000 -600 Descending Jacksonville Center
Thu 08:49:20 AM 31.0425 -84.8614 120° Southeast 461 531 35,000  Level Jacksonville Center
Thu 08:50:20 AM 31.0117 -84.7008 103° East 452 520 35,000  Level Jacksonville Center
Thu 08:51:20 AM 30.9867 -84.5453 101° East 463 533 35,000  Level Jacksonville Center
Thu 08:52:20 AM 30.9633 -84.3994 101° East 469 540 35,000  Level Jacksonville Center
Thu 08:53:20 AM 30.9378 -84.2464 101° East 469 540 35,000  Level Jacksonville Center
Thu 08:54:20 AM 30.9122 -84.0961 101° East 469 540 35,000  Level Jacksonville Center
Thu 08:55:20 AM 30.8886 -83.9506 101° East 469 540 35,000 -100 Level Jacksonville Center
Thu 08:56:20 AM 30.8647 -83.7978 100° East 469 540 34,800 -800 Descending Jacksonville Center
Thu 08:57:20 AM 30.8697 -83.6453 88° East 469 540 33,400 -1,400 Descending Jacksonville Center
Thu 08:58:20 AM 30.8769 -83.4906 87° East 464 534 32,000 -1,200 Descending Jacksonville Center
Thu 08:59:20 AM 30.8839 -83.3356 87° East 464 534 31,000 -500 Descending Jacksonville Center
Thu 09:00:20 AM 30.8569 -83.1925 102° East 464 534 31,000 -50 Level Jacksonville Center
Thu 09:01:20 AM 30.7633 -83.1053 141° Southeast 401 461 30,900 -1,050 Descending Jacksonville Center
Thu 09:02:20 AM 30.6506 -83.0397 153° Southeast 411 473 28,900 -1,950 Descending Jacksonville Center
Thu 09:03:20 AM 30.5506 -82.9650 147° Southeast 424 488 27,000 -1,850 Descending Jacksonville Center
Thu 09:04:20 AM 30.4564 -82.8806 142° Southeast 429 494 25,200 -1,000 Descending Jacksonville Center
Thu 09:05:20 AM 30.3689 -82.8011 142° Southeast 423 487 25,000 -100 Descending Jacksonville Center
Thu 09:06:20 AM 30.2811 -82.7217 142° Southeast 418 481 25,000  Level Jacksonville Center
Thu 09:07:20 AM 30.1889 -82.6428 144° Southeast 418 481 25,000  Level Jacksonville Center
Thu 09:08:20 AM 30.0969 -82.5636 143° Southeast 418 481 25,000  Level Jacksonville Center
Thu 09:09:20 AM 30.0069 -82.4800 141° Southeast 418 481 25,000  Level Jacksonville Center
Thu 09:10:20 AM 29.9064 -82.4181 152° Southeast 418 481 25,000  Level Jacksonville Center
Thu 09:11:20 AM 29.8019 -82.3683 158° South 413 475 25,000 -50 Level Jacksonville Center
Thu 09:12:20 AM 29.6953 -82.3164 157° South 413 475 24,900 -500 Descending Jacksonville Center
Thu 09:13:20 AM 29.5906 -82.2669 158° South 413 475 24,000 -1,150 Descending Jacksonville Center
Thu 09:14:20 AM 29.4881 -82.2197 158° South 413 475 22,600 -1,800 Descending Jacksonville Center
Thu 09:15:20 AM 29.3875 -82.1703 157° South 408 470 20,400 -2,150 Descending Jacksonville Center
Thu 09:16:20 AM 29.2872 -82.1236 158° South 401 461 18,300 -2,000 Descending Jacksonville Center
Thu 09:17:20 AM 29.1931 -82.0767 156° South 390 449 16,400 -1,950 Descending Jacksonville Center
Thu 09:18:20 AM 29.0986 -82.0300 157° South 378 435 14,400 -2,000 Descending Jacksonville Center
Thu 09:19:20 AM 29.0067 -81.9903 159° South 365 420 12,400 -1,550 Descending Jacksonville Center
Thu 09:20:20 AM 28.9292 -81.9508 156° South 355 409 11,300 -700 Descending Jacksonville Center
Thu 09:21:20 AM 28.8661 -81.9039 147° Southeast 326 375 11,000 -500 Descending Jacksonville Center
Thu 09:21:44 AM 28.8500 -81.8667 116° Southeast 284 327 10,600 -1,286 Descending Orlando TRACON
Thu 09:22:44 AM 28.8333 -81.7833 103° East 280 322 9,200 -800 Descending Orlando TRACON
Thu 09:23:44 AM 28.8333 -81.7000 90° East 249 287 9,000 -150 Descending Orlando TRACON
Thu 09:24:44 AM 28.8167 -81.6167 103° East 239 275 8,900 -250 Descending Orlando TRACON
Thu 09:25:44 AM 28.8167 -81.5500 90° East 243 280 8,500 -850 Descending Orlando TRACON
Thu 09:26:44 AM 28.8167 -81.4667 90° East 236 272 7,200 -1,100 Descending Orlando TRACON
Thu 09:27:44 AM 28.8000 -81.4000 106° East 236 272 6,300 -650 Descending Orlando TRACON
Thu 09:28:44 AM 28.7667 -81.3500 127° Southeast 221 254 5,900 -645 Descending Orlando TRACON
Thu 09:29:45 AM 28.7000 -81.3333 168° South 188 216 5,000 -942 Descending Orlando TRACON
Thu 09:30:45 AM 28.6500 -81.3333 180° South 176 203 4,000 -900 Descending Orlando TRACON
Thu 09:31:45 AM 28.6167 -81.3333 180° South 169 194 3,200 -800 Descending Orlando TRACON

Login

Don't have an account? Register now (free) for customized features, flight alerts, and more!